sensor_id;sensor_type;location;lat;lon;timestamp;pressure;altitude;pressure_sealevel;temperature;humidity
43298;BME280;28892;55.640;37.532;2023-03-16T00:00:50;98358.06;;;3.31;68.29
43298;BME280;28892;55.640;37.532;2023-03-16T00:03:16;98344.38;;;3.19;68.71
43298;BME280;28892;55.640;37.532;2023-03-16T00:05:51;98345.06;;;2.95;70.01
43298;BME280;28892;55.640;37.532;2023-03-16T00:08:18;98337.44;;;3.10;69.44
43298;BME280;28892;55.640;37.532;2023-03-16T00:10:44;98335.06;;;3.25;69.20
43298;BME280;28892;55.640;37.532;2023-03-16T00:13:16;98319.63;;;3.48;68.48
43298;BME280;28892;55.640;37.532;2023-03-16T00:15:56;98331.66;;;3.76;68.18
43298;BME280;28892;55.640;37.532;2023-03-16T00:18:24;98319.69;;;3.90;66.76
43298;BME280;28892;55.640;37.532;2023-03-16T00:20:53;98317.94;;;4.07;66.27
43298;BME280;28892;55.640;37.532;2023-03-16T00:23:20;98327.63;;;3.47;68.75
43298;BME280;28892;55.640;37.532;2023-03-16T00:25:56;98326.28;;;3.94;66.94
43298;BME280;28892;55.640;37.532;2023-03-16T00:28:24;98337.59;;;3.86;67.41
43298;BME280;28892;55.640;37.532;2023-03-16T00:30:50;98339.91;;;4.06;66.93
43298;BME280;28892;55.640;37.532;2023-03-16T00:33:16;98340.03;;;3.88;67.80
43298;BME280;28892;55.640;37.532;2023-03-16T00:35:46;98350.34;;;3.81;68.44
43298;BME280;28892;55.640;37.532;2023-03-16T00:38:15;98338.28;;;3.97;67.46
43298;BME280;28892;55.640;37.532;2023-03-16T00:40:41;98333.19;;;4.12;66.88
43298;BME280;28892;55.640;37.532;2023-03-16T00:43:08;98332.53;;;4.10;67.11
43298;BME280;28892;55.640;37.532;2023-03-16T00:45:34;98334.47;;;3.99;67.32
43298;BME280;28892;55.640;37.532;2023-03-16T00:48:02;98335.25;;;3.83;68.12
43298;BME280;28892;55.640;37.532;2023-03-16T00:50:27;98339.06;;;3.97;68.36
43298;BME280;28892;55.640;37.532;2023-03-16T00:52:53;98329.06;;;3.92;67.92
43298;BME280;28892;55.640;37.532;2023-03-16T00:55:19;98331.19;;;3.89;68.20
43298;BME280;28892;55.640;37.532;2023-03-16T00:57:45;98325.63;;;3.92;68.18
43298;BME280;28892;55.640;37.532;2023-03-16T01:00:12;98332.19;;;3.96;67.91
43298;BME280;28892;55.640;37.532;2023-03-16T01:02:44;98333.16;;;3.87;68.58
43298;BME280;28892;55.640;37.532;2023-03-16T01:05:11;98334.28;;;3.84;68.65
43298;BME280;28892;55.640;37.532;2023-03-16T01:07:38;98332.44;;;3.68;69.27
43298;BME280;28892;55.640;37.532;2023-03-16T01:10:05;98330.69;;;3.77;68.87
43298;BME280;28892;55.640;37.532;2023-03-16T01:12:31;98332.31;;;3.35;70.14
43298;BME280;28892;55.640;37.532;2023-03-16T01:14:57;98335.78;;;3.35;70.52
43298;BME280;28892;55.640;37.532;2023-03-16T01:17:24;98333.72;;;3.56;69.90
43298;BME280;28892;55.640;37.532;2023-03-16T01:19:51;98333.28;;;3.69;69.56
43298;BME280;28892;55.640;37.532;2023-03-16T01:22:18;98346.31;;;3.52;69.55
43298;BME280;28892;55.640;37.532;2023-03-16T01:24:44;98331.84;;;3.31;70.00
43298;BME280;28892;55.640;37.532;2023-03-16T01:27:10;98327.97;;;3.52;69.74
43298;BME280;28892;55.640;37.532;2023-03-16T01:29:38;98336.47;;;3.46;70.06
43298;BME280;28892;55.640;37.532;2023-03-16T01:32:06;98328.88;;;3.34;69.87
43298;BME280;28892;55.640;37.532;2023-03-16T01:34:32;98327.06;;;3.35;70.60
43298;BME280;28892;55.640;37.532;2023-03-16T01:36:59;98327.59;;;3.04;71.10
43298;BME280;28892;55.640;37.532;2023-03-16T01:39:37;98327.53;;;3.22;70.80
43298;BME280;28892;55.640;37.532;2023-03-16T01:42:03;98328.03;;;3.26;70.60
43298;BME280;28892;55.640;37.532;2023-03-16T01:44:50;98332.88;;;3.47;70.46
43298;BME280;28892;55.640;37.532;2023-03-16T01:47:17;98335.38;;;3.22;70.64
43298;BME280;28892;55.640;37.532;2023-03-16T01:49:43;98337.69;;;3.25;70.70
43298;BME280;28892;55.640;37.532;2023-03-16T01:52:18;98339.13;;;3.19;70.86
43298;BME280;28892;55.640;37.532;2023-03-16T01:54:47;98332.44;;;3.25;71.11
43298;BME280;28892;55.640;37.532;2023-03-16T01:57:26;98334.03;;;3.18;71.16
43298;BME280;28892;55.640;37.532;2023-03-16T02:00:07;98335.22;;;3.24;70.83
43298;BME280;28892;55.640;37.532;2023-03-16T02:02:55;98326.44;;;2.98;71.49
43298;BME280;28892;55.640;37.532;2023-03-16T02:05:55;98335.63;;;3.37;70.92
43298;BME280;28892;55.640;37.532;2023-03-16T02:08:24;98329.97;;;3.15;70.46
43298;BME280;28892;55.640;37.532;2023-03-16T02:10:53;98329.28;;;3.13;70.90
43298;BME280;28892;55.640;37.532;2023-03-16T02:13:24;98339.63;;;2.88;71.74
43298;BME280;28892;55.640;37.532;2023-03-16T02:15:51;98328.28;;;3.06;71.32
43298;BME280;28892;55.640;37.532;2023-03-16T02:18:20;98325.19;;;3.19;70.56
43298;BME280;28892;55.640;37.532;2023-03-16T02:23:23;98322.91;;;3.16;71.29
43298;BME280;28892;55.640;37.532;2023-03-16T02:29:10;98322.81;;;3.34;70.52
43298;BME280;28892;55.640;37.532;2023-03-16T02:31:43;98330.53;;;3.01;71.42
43298;BME280;28892;55.640;37.532;2023-03-16T02:34:15;98330.22;;;3.04;71.38
43298;BME280;28892;55.640;37.532;2023-03-16T02:36:43;98332.69;;;2.79;72.42
43298;BME280;28892;55.640;37.532;2023-03-16T02:39:13;98313.78;;;2.67;72.57
43298;BME280;28892;55.640;37.532;2023-03-16T02:41:44;98314.00;;;3.00;71.98
43298;BME280;28892;55.640;37.532;2023-03-16T02:44:27;98293.56;;;3.12;71.70
43298;BME280;28892;55.640;37.532;2023-03-16T02:47:00;98296.13;;;2.96;71.54
43298;BME280;28892;55.640;37.532;2023-03-16T02:49:39;98309.94;;;3.14;71.41
43298;BME280;28892;55.640;37.532;2023-03-16T02:52:10;98294.56;;;2.85;71.88
43298;BME280;28892;55.640;37.532;2023-03-16T02:54:36;98293.41;;;2.79;71.79
43298;BME280;28892;55.640;37.532;2023-03-16T02:57:04;98298.38;;;2.64;73.04
43298;BME280;28892;55.640;37.532;2023-03-16T02:59:31;98310.59;;;2.82;72.63
43298;BME280;28892;55.640;37.532;2023-03-16T03:01:57;98304.91;;;2.86;72.10
43298;BME280;28892;55.640;37.532;2023-03-16T03:04:23;98319.31;;;3.17;71.49
43298;BME280;28892;55.640;37.532;2023-03-16T03:06:50;98302.84;;;2.98;71.55
43298;BME280;28892;55.640;37.532;2023-03-16T03:09:49;98304.97;;;3.03;71.17
43298;BME280;28892;55.640;37.532;2023-03-16T03:12:18;98292.44;;;3.15;71.06
43298;BME280;28892;55.640;37.532;2023-03-16T03:15:02;98302.31;;;3.29;70.93
43298;BME280;28892;55.640;37.532;2023-03-16T03:17:35;98301.19;;;3.32;70.45
43298;BME280;28892;55.640;37.532;2023-03-16T03:20:03;98305.38;;;3.59;69.97
43298;BME280;28892;55.640;37.532;2023-03-16T03:22:48;98290.84;;;3.82;69.20
43298;BME280;28892;55.640;37.532;2023-03-16T03:25:16;98289.47;;;3.53;69.20
43298;BME280;28892;55.640;37.532;2023-03-16T03:27:46;98280.75;;;3.52;69.94
43298;BME280;28892;55.640;37.532;2023-03-16T03:30:21;98288.88;;;3.84;68.50
43298;BME280;28892;55.640;37.532;2023-03-16T03:32:50;98289.56;;;4.02;67.79
43298;BME280;28892;55.640;37.532;2023-03-16T03:35:20;98281.69;;;4.02;67.81
43298;BME280;28892;55.640;37.532;2023-03-16T03:37:47;98278.88;;;4.04;67.53
43298;BME280;28892;55.640;37.532;2023-03-16T03:40:15;98285.47;;;4.08;67.84
43298;BME280;28892;55.640;37.532;2023-03-16T03:42:45;98274.47;;;4.04;67.16
43298;BME280;28892;55.640;37.532;2023-03-16T03:45:11;98283.31;;;4.20;66.49
43298;BME280;28892;55.640;37.532;2023-03-16T03:47:40;98296.94;;;4.15;67.23
43298;BME280;28892;55.640;37.532;2023-03-16T03:50:09;98295.13;;;3.91;68.08
43298;BME280;28892;55.640;37.532;2023-03-16T03:52:45;98301.97;;;3.75;68.34
43298;BME280;28892;55.640;37.532;2023-03-16T03:55:11;98312.06;;;3.54;69.45
43298;BME280;28892;55.640;37.532;2023-03-16T03:57:38;98304.66;;;3.41;69.81
43298;BME280;28892;55.640;37.532;2023-03-16T04:00:06;98297.50;;;3.59;70.00
43298;BME280;28892;55.640;37.532;2023-03-16T04:02:42;98307.03;;;3.69;69.45
43298;BME280;28892;55.640;37.532;2023-03-16T04:05:17;98297.53;;;3.68;69.00
43298;BME280;28892;55.640;37.532;2023-03-16T04:07:44;98313.97;;;3.86;68.78
43298;BME280;28892;55.640;37.532;2023-03-16T04:10:12;98294.09;;;3.75;68.49
43298;BME280;28892;55.640;37.532;2023-03-16T04:12:40;98301.22;;;4.08;67.47
43298;BME280;28892;55.640;37.532;2023-03-16T04:15:09;98304.47;;;3.94;68.01
43298;BME280;28892;55.640;37.532;2023-03-16T04:17:47;98285.47;;;4.00;67.60
43298;BME280;28892;55.640;37.532;2023-03-16T04:20:14;98297.53;;;3.68;68.59
43298;BME280;28892;55.640;37.532;2023-03-16T04:22:46;98289.22;;;3.81;68.11
43298;BME280;28892;55.640;37.532;2023-03-16T04:25:15;98296.41;;;3.78;68.67
43298;BME280;28892;55.640;37.532;2023-03-16T04:27:43;98284.25;;;3.77;68.20
43298;BME280;28892;55.640;37.532;2023-03-16T04:30:13;98301.50;;;3.80;68.27
43298;BME280;28892;55.640;37.532;2023-03-16T04:32:44;98285.41;;;3.83;68.50
43298;BME280;28892;55.640;37.532;2023-03-16T04:35:13;98291.66;;;3.74;68.25
43298;BME280;28892;55.640;37.532;2023-03-16T04:37:46;98306.09;;;3.86;68.21
43298;BME280;28892;55.640;37.532;2023-03-16T04:40:12;98295.44;;;3.96;68.07
43298;BME280;28892;55.640;37.532;2023-03-16T04:42:47;98297.91;;;4.14;66.79
43298;BME280;28892;55.640;37.532;2023-03-16T04:45:17;98306.44;;;4.00;67.19
43298;BME280;28892;55.640;37.532;2023-03-16T04:47:44;98330.28;;;3.55;68.97
43298;BME280;28892;55.640;37.532;2023-03-16T04:50:11;98332.53;;;2.81;71.77
43298;BME280;28892;55.640;37.532;2023-03-16T04:52:38;98326.19;;;2.83;72.31
43298;BME280;28892;55.640;37.532;2023-03-16T04:55:05;98322.84;;;3.07;71.67
43298;BME280;28892;55.640;37.532;2023-03-16T04:57:37;98316.38;;;3.20;71.30
43298;BME280;28892;55.640;37.532;2023-03-16T05:00:04;98336.00;;;3.16;71.64
43298;BME280;28892;55.640;37.532;2023-03-16T05:02:40;98331.16;;;2.95;71.96
43298;BME280;28892;55.640;37.532;2023-03-16T05:05:06;98328.66;;;2.67;72.79
43298;BME280;28892;55.640;37.532;2023-03-16T05:07:34;98328.72;;;2.48;73.80
43298;BME280;28892;55.640;37.532;2023-03-16T05:10:00;98339.78;;;2.60;73.89
43298;BME280;28892;55.640;37.532;2023-03-16T05:12:25;98336.72;;;2.73;73.98
43298;BME280;28892;55.640;37.532;2023-03-16T05:14:57;98331.84;;;2.52;73.83
43298;BME280;28892;55.640;37.532;2023-03-16T05:17:33;98347.03;;;2.48;74.12
43298;BME280;28892;55.640;37.532;2023-03-16T05:19:59;98345.88;;;2.25;75.12
43298;BME280;28892;55.640;37.532;2023-03-16T05:22:26;98351.09;;;2.06;76.02
43298;BME280;28892;55.640;37.532;2023-03-16T05:25:14;98351.16;;;2.33;76.19
43298;BME280;28892;55.640;37.532;2023-03-16T05:27:43;98348.19;;;2.72;74.99
43298;BME280;28892;55.640;37.532;2023-03-16T05:30:13;98346.03;;;2.94;73.88
43298;BME280;28892;55.640;37.532;2023-03-16T05:32:41;98330.25;;;3.12;73.02
43298;BME280;28892;55.640;37.532;2023-03-16T05:35:08;98323.75;;;3.16;72.57
43298;BME280;28892;55.640;37.532;2023-03-16T05:37:36;98334.22;;;3.25;72.46
43298;BME280;28892;55.640;37.532;2023-03-16T05:40:06;98327.97;;;3.52;70.85
43298;BME280;28892;55.640;37.532;2023-03-16T05:42:49;98335.56;;;3.72;70.64
43298;BME280;28892;55.640;37.532;2023-03-16T05:45:19;98344.28;;;3.81;70.06
43298;BME280;28892;55.640;37.532;2023-03-16T05:47:57;98339.31;;;3.61;69.76
43298;BME280;28892;55.640;37.532;2023-03-16T05:50:24;98341.97;;;3.69;69.57
43298;BME280;28892;55.640;37.532;2023-03-16T05:52:50;98334.00;;;3.36;69.77
43298;BME280;28892;55.640;37.532;2023-03-16T05:55:20;98346.44;;;3.42;70.72
43298;BME280;28892;55.640;37.532;2023-03-16T05:57:53;98325.56;;;3.24;70.55
43298;BME280;28892;55.640;37.532;2023-03-16T06:00:20;98336.53;;;3.19;70.94
43298;BME280;28892;55.640;37.532;2023-03-16T06:02:54;98349.47;;;3.21;71.77
43298;BME280;28892;55.640;37.532;2023-03-16T06:05:24;98345.56;;;3.25;71.77
43298;BME280;28892;55.640;37.532;2023-03-16T06:07:51;98343.31;;;3.39;71.31
43298;BME280;28892;55.640;37.532;2023-03-16T06:10:18;98340.22;;;3.43;70.76
43298;BME280;28892;55.640;37.532;2023-03-16T06:12:44;98350.38;;;3.38;70.77
43298;BME280;28892;55.640;37.532;2023-03-16T06:15:11;98343.53;;;2.84;72.17
43298;BME280;28892;55.640;37.532;2023-03-16T06:17:38;98354.47;;;2.79;72.90
43298;BME280;28892;55.640;37.532;2023-03-16T06:20:06;98352.94;;;2.50;74.01
43298;BME280;28892;55.640;37.532;2023-03-16T06:22:37;98364.00;;;2.62;73.73
43298;BME280;28892;55.640;37.532;2023-03-16T06:25:04;98370.22;;;2.61;73.72
43298;BME280;28892;55.640;37.532;2023-03-16T06:27:30;98372.34;;;2.40;74.77
43298;BME280;28892;55.640;37.532;2023-03-16T06:30:12;98379.16;;;2.77;74.57
43298;BME280;28892;55.640;37.532;2023-03-16T06:32:38;98378.34;;;3.03;73.47
43298;BME280;28892;55.640;37.532;2023-03-16T06:35:08;98382.19;;;2.90;73.17
43298;BME280;28892;55.640;37.532;2023-03-16T06:37:37;98376.22;;;2.80;73.01
43298;BME280;28892;55.640;37.532;2023-03-16T06:40:17;98359.00;;;2.96;72.86
43298;BME280;28892;55.640;37.532;2023-03-16T06:42:43;98363.66;;;2.84;72.59
43298;BME280;28892;55.640;37.532;2023-03-16T06:45:12;98369.28;;;2.71;73.47
43298;BME280;28892;55.640;37.532;2023-03-16T06:47:39;98373.91;;;2.77;73.88
43298;BME280;28892;55.640;37.532;2023-03-16T06:50:05;98370.13;;;2.98;73.26
43298;BME280;28892;55.640;37.532;2023-03-16T06:52:31;98362.25;;;3.24;72.74
43298;BME280;28892;55.640;37.532;2023-03-16T06:54:57;98372.00;;;3.40;72.02
43298;BME280;28892;55.640;37.532;2023-03-16T06:57:24;98365.28;;;3.11;71.55
43298;BME280;28892;55.640;37.532;2023-03-16T06:59:50;98374.00;;;2.85;72.94
43298;BME280;28892;55.640;37.532;2023-03-16T07:02:16;98357.91;;;2.80;73.85
43298;BME280;28892;55.640;37.532;2023-03-16T07:04:42;98363.78;;;3.08;73.72
43298;BME280;28892;55.640;37.532;2023-03-16T07:07:08;98357.53;;;3.28;72.72
43298;BME280;28892;55.640;37.532;2023-03-16T07:09:34;98361.53;;;3.40;72.42
43298;BME280;28892;55.640;37.532;2023-03-16T07:12:00;98366.47;;;3.52;72.12
43298;BME280;28892;55.640;37.532;2023-03-16T07:14:26;98369.91;;;3.44;71.79
43298;BME280;28892;55.640;37.532;2023-03-16T07:16:53;98379.97;;;3.30;71.84
43298;BME280;28892;55.640;37.532;2023-03-16T07:19:21;98374.19;;;3.18;72.20
43298;BME280;28892;55.640;37.532;2023-03-16T07:21:48;98383.34;;;3.49;72.35
43298;BME280;28892;55.640;37.532;2023-03-16T07:24:17;98378.47;;;3.62;71.45
43298;BME280;28892;55.640;37.532;2023-03-16T07:26:43;98376.00;;;3.53;70.76
43298;BME280;28892;55.640;37.532;2023-03-16T07:29:17;98376.06;;;3.69;71.29
43298;BME280;28892;55.640;37.532;2023-03-16T07:31:43;98369.00;;;3.70;70.73
43298;BME280;28892;55.640;37.532;2023-03-16T07:34:14;98368.16;;;3.61;70.83
43298;BME280;28892;55.640;37.532;2023-03-16T07:36:45;98371.66;;;3.78;70.79
43298;BME280;28892;55.640;37.532;2023-03-16T07:39:14;98363.13;;;3.84;70.28
43298;BME280;28892;55.640;37.532;2023-03-16T07:41:42;98361.31;;;3.76;70.27
43298;BME280;28892;55.640;37.532;2023-03-16T07:44:32;98356.09;;;3.85;70.36
43298;BME280;28892;55.640;37.532;2023-03-16T07:46:58;98349.91;;;3.51;70.55
43298;BME280;28892;55.640;37.532;2023-03-16T07:49:27;98355.25;;;3.33;71.14
43298;BME280;28892;55.640;37.532;2023-03-16T07:51:55;98353.84;;;3.47;71.55
43298;BME280;28892;55.640;37.532;2023-03-16T07:54:27;98343.72;;;3.60;71.16
43298;BME280;28892;55.640;37.532;2023-03-16T07:56:53;98356.47;;;3.47;71.45
43298;BME280;28892;55.640;37.532;2023-03-16T07:59:28;98351.69;;;3.42;71.82
43298;BME280;28892;55.640;37.532;2023-03-16T08:01:57;98348.94;;;3.44;72.28
43298;BME280;28892;55.640;37.532;2023-03-16T08:04:23;98342.84;;;3.43;72.19
43298;BME280;28892;55.640;37.532;2023-03-16T08:06:51;98343.69;;;3.52;71.97
43298;BME280;28892;55.640;37.532;2023-03-16T08:09:23;98349.91;;;3.51;72.31
43298;BME280;28892;55.640;37.532;2023-03-16T08:11:49;98359.63;;;3.59;72.01
43298;BME280;28892;55.640;37.532;2023-03-16T08:14:28;98355.00;;;3.53;71.86
43298;BME280;28892;55.640;37.532;2023-03-16T08:17:05;98346.53;;;3.67;71.93
43298;BME280;28892;55.640;37.532;2023-03-16T08:19:32;98361.06;;;3.96;71.28
43298;BME280;28892;55.640;37.532;2023-03-16T08:22:00;98346.44;;;3.94;70.92
43298;BME280;28892;55.640;37.532;2023-03-16T08:24:36;98364.03;;;4.18;70.90
43298;BME280;28892;55.640;37.532;2023-03-16T08:27:04;98362.69;;;3.97;71.06
43298;BME280;28892;55.640;37.532;2023-03-16T08:29:31;98363.50;;;3.89;71.07
43298;BME280;28892;55.640;37.532;2023-03-16T08:32:03;98359.78;;;4.25;71.26
43298;BME280;28892;55.640;37.532;2023-03-16T08:34:37;98362.28;;;4.52;70.65
43298;BME280;28892;55.640;37.532;2023-03-16T08:37:05;98374.09;;;4.72;69.72
43298;BME280;28892;55.640;37.532;2023-03-16T08:39:31;98367.50;;;4.85;69.09
43298;BME280;28892;55.640;37.532;2023-03-16T08:41:59;98369.50;;;4.74;67.84
43298;BME280;28892;55.640;37.532;2023-03-16T08:44:38;98366.69;;;4.59;68.25
43298;BME280;28892;55.640;37.532;2023-03-16T08:47:07;98368.66;;;4.49;68.70
43298;BME280;28892;55.640;37.532;2023-03-16T08:49:34;98372.13;;;4.66;68.92
43298;BME280;28892;55.640;37.532;2023-03-16T08:52:06;98362.78;;;4.55;68.48
43298;BME280;28892;55.640;37.532;2023-03-16T08:54:35;98371.97;;;4.35;69.33
43298;BME280;28892;55.640;37.532;2023-03-16T08:57:01;98375.06;;;4.46;69.53
43298;BME280;28892;55.640;37.532;2023-03-16T08:59:33;98372.22;;;4.07;70.18
43298;BME280;28892;55.640;37.532;2023-03-16T09:02:05;98371.03;;;3.92;70.40
43298;BME280;28892;55.640;37.532;2023-03-16T09:04:34;98381.81;;;3.81;71.31
43298;BME280;28892;55.640;37.532;2023-03-16T09:07:11;98389.34;;;3.68;71.72
43298;BME280;28892;55.640;37.532;2023-03-16T09:09:37;98378.00;;;3.59;72.56
43298;BME280;28892;55.640;37.532;2023-03-16T09:12:07;98363.28;;;3.74;73.08
43298;BME280;28892;55.640;37.532;2023-03-16T09:14:38;98359.44;;;4.12;72.26
43298;BME280;28892;55.640;37.532;2023-03-16T09:17:05;98356.88;;;4.45;71.00
43298;BME280;28892;55.640;37.532;2023-03-16T09:19:36;98365.38;;;4.80;68.85
43298;BME280;28892;55.640;37.532;2023-03-16T09:22:27;98368.59;;;5.15;68.43
43298;BME280;28892;55.640;37.532;2023-03-16T09:24:53;98365.66;;;5.10;68.31
43298;BME280;28892;55.640;37.532;2023-03-16T09:27:19;98362.34;;;5.16;67.57
43298;BME280;28892;55.640;37.532;2023-03-16T09:29:45;98365.53;;;4.95;67.29
43298;BME280;28892;55.640;37.532;2023-03-16T09:32:11;98358.16;;;4.57;68.04
43298;BME280;28892;55.640;37.532;2023-03-16T09:34:38;98361.28;;;4.69;69.19
43298;BME280;28892;55.640;37.532;2023-03-16T09:37:07;98374.56;;;4.84;68.79
43298;BME280;28892;55.640;37.532;2023-03-16T09:39:34;98373.41;;;4.70;68.64
43298;BME280;28892;55.640;37.532;2023-03-16T09:42:09;98379.47;;;4.96;69.15
43298;BME280;28892;55.640;37.532;2023-03-16T09:47:31;98373.22;;;5.13;67.94
43298;BME280;28892;55.640;37.532;2023-03-16T09:50:03;98363.72;;;4.96;67.86
43298;BME280;28892;55.640;37.532;2023-03-16T09:52:52;98364.88;;;4.85;68.55
43298;BME280;28892;55.640;37.532;2023-03-16T09:55:30;98371.78;;;4.78;69.13
43298;BME280;28892;55.640;37.532;2023-03-16T09:57:58;98366.84;;;4.91;69.16
43298;BME280;28892;55.640;37.532;2023-03-16T10:00:35;98364.84;;;5.10;69.08
43298;BME280;28892;55.640;37.532;2023-03-16T10:03:15;98369.28;;;5.01;68.35
43298;BME280;28892;55.640;37.532;2023-03-16T10:05:42;98367.19;;;4.63;69.12
43298;BME280;28892;55.640;37.532;2023-03-16T10:08:15;98374.75;;;4.58;69.81
43298;BME280;28892;55.640;37.532;2023-03-16T10:16:12;98380.47;;;4.95;69.83
43298;BME280;28892;55.640;37.532;2023-03-16T10:18:42;98380.09;;;5.23;69.49
43298;BME280;28892;55.640;37.532;2023-03-16T10:21:14;98374.25;;;5.52;67.76
43298;BME280;28892;55.640;37.532;2023-03-16T10:23:44;98364.03;;;5.57;66.70
43298;BME280;28892;55.640;37.532;2023-03-16T10:26:21;98363.97;;;5.74;66.33
43298;BME280;28892;55.640;37.532;2023-03-16T10:28:48;98363.75;;;5.84;65.37
43298;BME280;28892;55.640;37.532;2023-03-16T10:31:15;98374.22;;;5.92;66.12
43298;BME280;28892;55.640;37.532;2023-03-16T10:33:41;98363.91;;;5.91;65.99
43298;BME280;28892;55.640;37.532;2023-03-16T10:36:14;98380.97;;;6.03;66.48
43298;BME280;28892;55.640;37.532;2023-03-16T10:38:52;98379.44;;;6.09;66.22
43298;BME280;28892;55.640;37.532;2023-03-16T10:41:23;98380.72;;;6.13;65.15
43298;BME280;28892;55.640;37.532;2023-03-16T10:43:51;98385.19;;;6.12;64.83
43298;BME280;28892;55.640;37.532;2023-03-16T10:46:21;98370.72;;;6.08;65.05
43298;BME280;28892;55.640;37.532;2023-03-16T10:48:55;98373.00;;;6.11;65.21
43298;BME280;28892;55.640;37.532;2023-03-16T10:51:35;98386.31;;;6.18;65.28
43298;BME280;28892;55.640;37.532;2023-03-16T10:54:28;98383.06;;;6.31;65.36
43298;BME280;28892;55.640;37.532;2023-03-16T10:56:57;98369.69;;;6.18;65.07
43298;BME280;28892;55.640;37.532;2023-03-16T10:59:34;98379.91;;;6.36;64.97
43298;BME280;28892;55.640;37.532;2023-03-16T11:02:21;98386.78;;;6.45;64.81
43298;BME280;28892;55.640;37.532;2023-03-16T11:04:52;98380.22;;;6.41;63.85
43298;BME280;28892;55.640;37.532;2023-03-16T11:07:21;98381.22;;;6.40;64.01
43298;BME280;28892;55.640;37.532;2023-03-16T11:09:51;98384.97;;;6.46;64.02
43298;BME280;28892;55.640;37.532;2023-03-16T11:12:28;98381.50;;;6.45;63.45
43298;BME280;28892;55.640;37.532;2023-03-16T11:15:01;98384.31;;;6.43;63.84
43298;BME280;28892;55.640;37.532;2023-03-16T11:17:43;98380.22;;;6.41;64.51
43298;BME280;28892;55.640;37.532;2023-03-16T11:20:14;98388.47;;;6.38;63.96
43298;BME280;28892;55.640;37.532;2023-03-16T11:22:47;98386.81;;;6.37;63.83
43298;BME280;28892;55.640;37.532;2023-03-16T11:25:30;98384.38;;;6.35;64.29
43298;BME280;28892;55.640;37.532;2023-03-16T11:28:14;98391.69;;;6.25;64.25
43298;BME280;28892;55.640;37.532;2023-03-16T11:31:07;98383.47;;;6.20;64.92
43298;BME280;28892;55.640;37.532;2023-03-16T11:33:41;98387.16;;;6.10;64.48
43298;BME280;28892;55.640;37.532;2023-03-16T11:39:09;98399.00;;;6.14;65.33
43298;BME280;28892;55.640;37.532;2023-03-16T11:41:58;98381.56;;;6.37;64.25
43298;BME280;28892;55.640;37.532;2023-03-16T11:44:53;98406.81;;;6.23;64.94
43298;BME280;28892;55.640;37.532;2023-03-16T11:50:17;98400.56;;;5.92;65.37
43298;BME280;28892;55.640;37.532;2023-03-16T11:53:05;98408.09;;;5.95;65.94
43298;BME280;28892;55.640;37.532;2023-03-16T11:55:38;98412.03;;;5.99;65.10
43298;BME280;28892;55.640;37.532;2023-03-16T11:58:45;98413.47;;;6.10;64.74
43298;BME280;28892;55.640;37.532;2023-03-16T12:01:21;98414.34;;;5.94;64.76
43298;BME280;28892;55.640;37.532;2023-03-16T12:06:29;98419.28;;;5.97;65.45
43298;BME280;28892;55.640;37.532;2023-03-16T12:11:59;98423.38;;;6.08;65.14
43298;BME280;28892;55.640;37.532;2023-03-16T12:14:37;98412.72;;;6.01;65.51
43298;BME280;28892;55.640;37.532;2023-03-16T12:17:13;98412.72;;;6.01;65.78
43298;BME280;28892;55.640;37.532;2023-03-16T12:22:20;98420.94;;;5.98;64.74
43298;BME280;28892;55.640;37.532;2023-03-16T12:24:51;98418.38;;;5.82;64.99
43298;BME280;28892;55.640;37.532;2023-03-16T12:27:22;98403.28;;;5.76;65.39
43298;BME280;28892;55.640;37.532;2023-03-16T12:32:32;98428.72;;;6.23;64.32
43298;BME280;28892;55.640;37.532;2023-03-16T12:40:32;98431.91;;;5.62;66.93
43298;BME280;28892;55.640;37.532;2023-03-16T12:46:06;98436.03;;;5.65;68.27
43298;BME280;28892;55.640;37.532;2023-03-16T12:51:03;98436.84;;;5.65;66.45
43298;BME280;28892;55.640;37.532;2023-03-16T12:56:06;98442.94;;;5.66;66.60
43298;BME280;28892;55.640;37.532;2023-03-16T12:58:35;98438.69;;;5.56;67.16
43298;BME280;28892;55.640;37.532;2023-03-16T13:01:07;98443.13;;;5.64;66.49
43298;BME280;28892;55.640;37.532;2023-03-16T13:03:35;98437.00;;;5.64;66.84
43298;BME280;28892;55.640;37.532;2023-03-16T13:06:01;98449.69;;;5.60;66.64
43298;BME280;28892;55.640;37.532;2023-03-16T13:08:40;98438.16;;;5.69;67.15
43298;BME280;28892;55.640;37.532;2023-03-16T13:11:09;98438.81;;;5.63;66.34
43298;BME280;28892;55.640;37.532;2023-03-16T13:13:49;98445.53;;;5.74;66.35
43298;BME280;28892;55.640;37.532;2023-03-16T13:16:26;98443.13;;;5.64;66.76
43298;BME280;28892;55.640;37.532;2023-03-16T13:18:53;98426.88;;;5.44;66.61
43298;BME280;28892;55.640;37.532;2023-03-16T13:21:32;98437.38;;;5.52;66.87
43298;BME280;28892;55.640;37.532;2023-03-16T13:26:44;98437.41;;;5.44;66.73
43298;BME280;28892;55.640;37.532;2023-03-16T13:29:25;98437.53;;;5.51;66.94
43298;BME280;28892;55.640;37.532;2023-03-16T13:31:55;98429.56;;;5.27;67.16
43298;BME280;28892;55.640;37.532;2023-03-16T13:34:25;98426.78;;;5.21;67.23
43298;BME280;28892;55.640;37.532;2023-03-16T13:36:54;98434.31;;;5.32;67.18
43298;BME280;28892;55.640;37.532;2023-03-16T13:48:15;98431.34;;;5.43;67.22
43298;BME280;28892;55.640;37.532;2023-03-16T13:50:41;98438.09;;;5.29;67.21
43298;BME280;28892;55.640;37.532;2023-03-16T13:53:16;98417.84;;;5.30;67.22
43298;BME280;28892;55.640;37.532;2023-03-16T13:55:46;98429.06;;;5.24;67.27
43298;BME280;28892;55.640;37.532;2023-03-16T13:58:22;98436.25;;;5.38;67.79
43298;BME280;28892;55.640;37.532;2023-03-16T14:00:48;98442.34;;;5.30;67.33
43298;BME280;28892;55.640;37.532;2023-03-16T14:03:16;98413.78;;;5.27;67.51
43298;BME280;28892;55.640;37.532;2023-03-16T14:05:46;98422.66;;;5.26;67.25
43298;BME280;28892;55.640;37.532;2023-03-16T14:08:19;98421.97;;;5.32;67.69
43298;BME280;28892;55.640;37.532;2023-03-16T14:10:46;98430.53;;;5.26;67.35
43298;BME280;28892;55.640;37.532;2023-03-16T14:16:15;98416.19;;;5.45;67.58
43298;BME280;28892;55.640;37.532;2023-03-16T14:18:53;98425.75;;;5.38;67.56